sensor_id;sensor_type;location;lat;lon;timestamp;temperature;humidity
39751;DHT22;37579;51.074;17.004;2023-06-10T00:01:58;27.80;57.80
39751;DHT22;37579;51.074;17.004;2023-06-10T00:04:26;27.80;57.90
39751;DHT22;37579;51.074;17.004;2023-06-10T00:06:53;27.80;58.00
39751;DHT22;37579;51.074;17.004;2023-06-10T00:09:19;27.80;57.90
39751;DHT22;37579;51.074;17.004;2023-06-10T00:11:47;27.80;58.00
39751;DHT22;37579;51.074;17.004;2023-06-10T00:14:13;27.80;57.70
39751;DHT22;37579;51.074;17.004;2023-06-10T00:16:39;27.80;57.90
39751;DHT22;37579;51.074;17.004;2023-06-10T00:19:05;27.80;57.70
39751;DHT22;37579;51.074;17.004;2023-06-10T00:21:32;27.70;57.80
39751;DHT22;37579;51.074;17.004;2023-06-10T00:24:09;27.80;57.80
39751;DHT22;37579;51.074;17.004;2023-06-10T00:26:38;27.80;57.50
39751;DHT22;37579;51.074;17.004;2023-06-10T00:29:05;27.80;57.60
39751;DHT22;37579;51.074;17.004;2023-06-10T00:31:31;27.80;57.80
39751;DHT22;37579;51.074;17.004;2023-06-10T00:33:58;27.80;58.00
39751;DHT22;37579;51.074;17.004;2023-06-10T00:36:24;27.70;57.90
39751;DHT22;37579;51.074;17.004;2023-06-10T00:38:50;27.70;58.00
39751;DHT22;37579;51.074;17.004;2023-06-10T00:41:16;27.70;58.00
39751;DHT22;37579;51.074;17.004;2023-06-10T00:43:41;27.70;58.00
39751;DHT22;37579;51.074;17.004;2023-06-10T00:46:07;27.70;57.80
39751;DHT22;37579;51.074;17.004;2023-06-10T00:48:33;27.70;57.80
39751;DHT22;37579;51.074;17.004;2023-06-10T00:51:00;27.70;57.90
39751;DHT22;37579;51.074;17.004;2023-06-10T00:53:26;27.70;57.80
39751;DHT22;37579;51.074;17.004;2023-06-10T00:55:53;27.70;57.80
39751;DHT22;37579;51.074;17.004;2023-06-10T00:58:19;27.70;57.70
39751;DHT22;37579;51.074;17.004;2023-06-10T01:00:45;27.60;57.60
39751;DHT22;37579;51.074;17.004;2023-06-10T01:03:12;27.60;57.60
39751;DHT22;37579;51.074;17.004;2023-06-10T01:05:38;27.60;57.70
39751;DHT22;37579;51.074;17.004;2023-06-10T01:08:28;27.60;57.50
39751;DHT22;37579;51.074;17.004;2023-06-10T01:11:01;27.60;57.40
39751;DHT22;37579;51.074;17.004;2023-06-10T01:13:29;27.60;57.40
39751;DHT22;37579;51.074;17.004;2023-06-10T01:15:57;27.60;57.40
39751;DHT22;37579;51.074;17.004;2023-06-10T01:18:30;27.60;57.60
39751;DHT22;37579;51.074;17.004;2023-06-10T01:20:57;27.60;57.50
39751;DHT22;37579;51.074;17.004;2023-06-10T01:23:23;27.60;57.50
39751;DHT22;37579;51.074;17.004;2023-06-10T01:26:02;27.60;57.40
39751;DHT22;37579;51.074;17.004;2023-06-10T01:28:51;27.70;57.30
39751;DHT22;37579;51.074;17.004;2023-06-10T01:33:51;27.70;56.60
39751;DHT22;37579;51.074;17.004;2023-06-10T01:36:18;27.70;57.00
39751;DHT22;37579;51.074;17.004;2023-06-10T01:38:45;27.70;57.10
39751;DHT22;37579;51.074;17.004;2023-06-10T01:41:15;27.60;57.10
39751;DHT22;37579;51.074;17.004;2023-06-10T01:43:43;27.70;57.10
39751;DHT22;37579;51.074;17.004;2023-06-10T01:46:09;27.70;57.80
39751;DHT22;37579;51.074;17.004;2023-06-10T01:48:35;27.60;57.00
39751;DHT22;37579;51.074;17.004;2023-06-10T01:51:01;27.60;57.00
39751;DHT22;37579;51.074;17.004;2023-06-10T01:53:27;27.50;56.80
39751;DHT22;37579;51.074;17.004;2023-06-10T01:55:53;27.50;56.70
39751;DHT22;37579;51.074;17.004;2023-06-10T01:58:18;27.40;56.60
39751;DHT22;37579;51.074;17.004;2023-06-10T02:00:44;27.30;56.60
39751;DHT22;37579;51.074;17.004;2023-06-10T02:03:10;27.30;56.40
39751;DHT22;37579;51.074;17.004;2023-06-10T02:05:36;27.30;56.60
39751;DHT22;37579;51.074;17.004;2023-06-10T02:08:02;27.40;56.60
39751;DHT22;37579;51.074;17.004;2023-06-10T02:10:28;27.30;56.30
39751;DHT22;37579;51.074;17.004;2023-06-10T02:12:54;27.30;56.30
39751;DHT22;37579;51.074;17.004;2023-06-10T02:15:19;27.30;56.30
39751;DHT22;37579;51.074;17.004;2023-06-10T02:17:46;27.40;56.40
39751;DHT22;37579;51.074;17.004;2023-06-10T02:20:12;27.40;56.40
39751;DHT22;37579;51.074;17.004;2023-06-10T02:22:39;27.40;56.30
39751;DHT22;37579;51.074;17.004;2023-06-10T02:25:07;27.40;56.20
39751;DHT22;37579;51.074;17.004;2023-06-10T02:27:33;27.30;56.30
39751;DHT22;37579;51.074;17.004;2023-06-10T02:29:59;27.40;56.40
39751;DHT22;37579;51.074;17.004;2023-06-10T02:32:25;27.50;56.40
39751;DHT22;37579;51.074;17.004;2023-06-10T02:34:52;27.50;56.30
39751;DHT22;37579;51.074;17.004;2023-06-10T02:37:19;27.50;56.40
39751;DHT22;37579;51.074;17.004;2023-06-10T02:39:46;27.50;56.20
39751;DHT22;37579;51.074;17.004;2023-06-10T02:42:12;27.50;56.30
39751;DHT22;37579;51.074;17.004;2023-06-10T02:44:38;27.50;56.30
39751;DHT22;37579;51.074;17.004;2023-06-10T02:47:05;27.50;56.30
39751;DHT22;37579;51.074;17.004;2023-06-10T02:49:33;27.50;56.20
39751;DHT22;37579;51.074;17.004;2023-06-10T02:52:00;27.50;56.20
39751;DHT22;37579;51.074;17.004;2023-06-10T02:54:26;27.50;56.20
39751;DHT22;37579;51.074;17.004;2023-06-10T02:56:54;27.50;56.10
39751;DHT22;37579;51.074;17.004;2023-06-10T02:59:23;27.50;56.20
39751;DHT22;37579;51.074;17.004;2023-06-10T03:01:49;27.50;56.10
39751;DHT22;37579;51.074;17.004;2023-06-10T03:04:15;27.50;56.20
39751;DHT22;37579;51.074;17.004;2023-06-10T03:06:48;27.50;56.00
39751;DHT22;37579;51.074;17.004;2023-06-10T03:09:22;27.50;56.10
39751;DHT22;37579;51.074;17.004;2023-06-10T03:11:51;27.50;56.10
39751;DHT22;37579;51.074;17.004;2023-06-10T03:14:18;27.50;56.10
39751;DHT22;37579;51.074;17.004;2023-06-10T03:16:44;27.50;56.00
39751;DHT22;37579;51.074;17.004;2023-06-10T03:19:11;27.50;56.00
39751;DHT22;37579;51.074;17.004;2023-06-10T03:21:43;27.50;55.80
39751;DHT22;37579;51.074;17.004;2023-06-10T03:24:09;27.50;55.80
39751;DHT22;37579;51.074;17.004;2023-06-10T03:26:37;27.50;56.00
39751;DHT22;37579;51.074;17.004;2023-06-10T03:29:04;27.50;56.00
39751;DHT22;37579;51.074;17.004;2023-06-10T03:31:30;27.50;55.80
39751;DHT22;37579;51.074;17.004;2023-06-10T03:33:56;27.50;55.70
39751;DHT22;37579;51.074;17.004;2023-06-10T03:36:24;27.50;56.00
39751;DHT22;37579;51.074;17.004;2023-06-10T03:38:55;27.40;56.00
39751;DHT22;37579;51.074;17.004;2023-06-10T03:41:22;27.50;55.80
39751;DHT22;37579;51.074;17.004;2023-06-10T03:43:50;27.50;55.80
39751;DHT22;37579;51.074;17.004;2023-06-10T03:46:15;27.50;55.80
39751;DHT22;37579;51.074;17.004;2023-06-10T03:48:43;27.50;55.70
39751;DHT22;37579;51.074;17.004;2023-06-10T03:51:09;27.50;55.60
39751;DHT22;37579;51.074;17.004;2023-06-10T03:53:35;27.50;55.60
39751;DHT22;37579;51.074;17.004;2023-06-10T03:56:01;27.50;55.70
39751;DHT22;37579;51.074;17.004;2023-06-10T03:58:28;27.60;55.60
39751;DHT22;37579;51.074;17.004;2023-06-10T04:00:54;27.60;55.60
39751;DHT22;37579;51.074;17.004;2023-06-10T04:03:28;27.60;55.50
39751;DHT22;37579;51.074;17.004;2023-06-10T04:05:54;27.50;55.50
39751;DHT22;37579;51.074;17.004;2023-06-10T04:08:20;27.50;55.60
39751;DHT22;37579;51.074;17.004;2023-06-10T04:10:47;27.40;55.40
39751;DHT22;37579;51.074;17.004;2023-06-10T04:13:13;27.40;55.70
39751;DHT22;37579;51.074;17.004;2023-06-10T04:15:47;27.50;55.50
39751;DHT22;37579;51.074;17.004;2023-06-10T04:18:16;27.50;55.70
39751;DHT22;37579;51.074;17.004;2023-06-10T04:20:43;27.50;55.50
39751;DHT22;37579;51.074;17.004;2023-06-10T04:23:10;27.50;55.40
39751;DHT22;37579;51.074;17.004;2023-06-10T04:25:37;27.40;55.40
39751;DHT22;37579;51.074;17.004;2023-06-10T04:28:03;27.40;55.50
39751;DHT22;37579;51.074;17.004;2023-06-10T04:30:29;27.40;55.60
39751;DHT22;37579;51.074;17.004;2023-06-10T04:32:57;27.50;55.50
39751;DHT22;37579;51.074;17.004;2023-06-10T04:35:23;27.50;55.40
39751;DHT22;37579;51.074;17.004;2023-06-10T04:37:49;27.50;55.40
39751;DHT22;37579;51.074;17.004;2023-06-10T04:40:15;27.50;55.20
39751;DHT22;37579;51.074;17.004;2023-06-10T04:42:42;27.50;55.40
39751;DHT22;37579;51.074;17.004;2023-06-10T04:45:08;27.50;55.40
39751;DHT22;37579;51.074;17.004;2023-06-10T04:47:34;27.50;55.40
39751;DHT22;37579;51.074;17.004;2023-06-10T04:50:01;27.50;55.50
39751;DHT22;37579;51.074;17.004;2023-06-10T04:52:28;27.50;55.40
39751;DHT22;37579;51.074;17.004;2023-06-10T04:54:54;27.50;55.40
39751;DHT22;37579;51.074;17.004;2023-06-10T04:57:20;27.50;55.50
39751;DHT22;37579;51.074;17.004;2023-06-10T04:59:47;27.50;55.50
39751;DHT22;37579;51.074;17.004;2023-06-10T05:02:13;27.50;55.30
39751;DHT22;37579;51.074;17.004;2023-06-10T05:04:39;27.50;55.50
39751;DHT22;37579;51.074;17.004;2023-06-10T05:07:05;27.50;55.60
39751;DHT22;37579;51.074;17.004;2023-06-10T05:09:30;27.50;55.50
39751;DHT22;37579;51.074;17.004;2023-06-10T05:11:57;27.50;55.50
39751;DHT22;37579;51.074;17.004;2023-06-10T05:14:22;27.50;55.30
39751;DHT22;37579;51.074;17.004;2023-06-10T05:16:48;27.50;55.40
39751;DHT22;37579;51.074;17.004;2023-06-10T05:19:14;27.50;55.40
39751;DHT22;37579;51.074;17.004;2023-06-10T05:21:42;27.50;55.50
39751;DHT22;37579;51.074;17.004;2023-06-10T05:24:08;27.50;55.40
39751;DHT22;37579;51.074;17.004;2023-06-10T05:26:34;27.50;55.50
39751;DHT22;37579;51.074;17.004;2023-06-10T05:29:03;27.50;55.50
39751;DHT22;37579;51.074;17.004;2023-06-10T05:31:30;27.60;55.40
39751;DHT22;37579;51.074;17.004;2023-06-10T05:33:55;27.50;55.40
39751;DHT22;37579;51.074;17.004;2023-06-10T05:36:21;27.60;55.50
39751;DHT22;37579;51.074;17.004;2023-06-10T05:38:47;27.60;55.60
39751;DHT22;37579;51.074;17.004;2023-06-10T05:41:13;27.50;55.60
39751;DHT22;37579;51.074;17.004;2023-06-10T05:43:39;27.60;55.70
39751;DHT22;37579;51.074;17.004;2023-06-10T05:46:05;27.50;55.90
39751;DHT22;37579;51.074;17.004;2023-06-10T05:48:31;27.50;56.00
39751;DHT22;37579;51.074;17.004;2023-06-10T05:50:57;27.60;55.90
39751;DHT22;37579;51.074;17.004;2023-06-10T05:53:22;27.60;55.80
39751;DHT22;37579;51.074;17.004;2023-06-10T05:55:48;27.60;56.10
39751;DHT22;37579;51.074;17.004;2023-06-10T05:58:14;27.70;55.80
39751;DHT22;37579;51.074;17.004;2023-06-10T06:00:41;27.70;55.50
39751;DHT22;37579;51.074;17.004;2023-06-10T06:03:10;27.80;55.10
39751;DHT22;37579;51.074;17.004;2023-06-10T06:05:36;27.90;54.90
39751;DHT22;37579;51.074;17.004;2023-06-10T06:08:07;27.90;54.70
39751;DHT22;37579;51.074;17.004;2023-06-10T06:10:33;27.80;55.10
39751;DHT22;37579;51.074;17.004;2023-06-10T06:13:00;27.80;55.30
39751;DHT22;37579;51.074;17.004;2023-06-10T06:15:26;27.80;55.30
39751;DHT22;37579;51.074;17.004;2023-06-10T06:17:52;27.80;55.30
39751;DHT22;37579;51.074;17.004;2023-06-10T06:20:21;27.70;55.30
39751;DHT22;37579;51.074;17.004;2023-06-10T06:22:47;27.70;55.20
39751;DHT22;37579;51.074;17.004;2023-06-10T06:25:14;27.70;55.20
39751;DHT22;37579;51.074;17.004;2023-06-10T06:27:40;27.70;55.30
39751;DHT22;37579;51.074;17.004;2023-06-10T06:30:06;27.70;55.00
39751;DHT22;37579;51.074;17.004;2023-06-10T06:32:32;27.70;55.00
39751;DHT22;37579;51.074;17.004;2023-06-10T06:34:58;27.80;55.10
39751;DHT22;37579;51.074;17.004;2023-06-10T06:37:25;27.80;55.00
39751;DHT22;37579;51.074;17.004;2023-06-10T06:39:59;27.70;55.10
39751;DHT22;37579;51.074;17.004;2023-06-10T06:42:25;27.70;55.50
39751;DHT22;37579;51.074;17.004;2023-06-10T06:44:59;27.80;55.30
39751;DHT22;37579;51.074;17.004;2023-06-10T06:47:25;27.70;55.60
39751;DHT22;37579;51.074;17.004;2023-06-10T06:49:52;27.70;55.50
39751;DHT22;37579;51.074;17.004;2023-06-10T06:52:17;27.70;55.60
39751;DHT22;37579;51.074;17.004;2023-06-10T06:54:44;27.70;55.60
39751;DHT22;37579;51.074;17.004;2023-06-10T06:57:11;27.80;55.90
39751;DHT22;37579;51.074;17.004;2023-06-10T06:59:37;27.80;55.20
39751;DHT22;37579;51.074;17.004;2023-06-10T07:02:03;27.80;55.10
39751;DHT22;37579;51.074;17.004;2023-06-10T07:04:29;27.90;54.80
39751;DHT22;37579;51.074;17.004;2023-06-10T07:06:55;27.90;54.90
39751;DHT22;37579;51.074;17.004;2023-06-10T07:09:21;27.90;55.10
39751;DHT22;37579;51.074;17.004;2023-06-10T07:11:47;27.90;55.20
39751;DHT22;37579;51.074;17.004;2023-06-10T07:14:13;27.90;55.10
39751;DHT22;37579;51.074;17.004;2023-06-10T07:16:38;27.90;55.50
39751;DHT22;37579;51.074;17.004;2023-06-10T07:19:04;27.90;55.20
39751;DHT22;37579;51.074;17.004;2023-06-10T07:21:30;28.00;55.10
39751;DHT22;37579;51.074;17.004;2023-06-10T07:23:57;28.00;54.90
39751;DHT22;37579;51.074;17.004;2023-06-10T07:26:23;28.00;55.00
39751;DHT22;37579;51.074;17.004;2023-06-10T07:28:49;28.00;55.00
39751;DHT22;37579;51.074;17.004;2023-06-10T07:31:15;28.00;54.90
39751;DHT22;37579;51.074;17.004;2023-06-10T07:33:41;28.00;54.80
39751;DHT22;37579;51.074;17.004;2023-06-10T07:36:07;27.90;54.70
39751;DHT22;37579;51.074;17.004;2023-06-10T07:38:33;28.00;54.80
39751;DHT22;37579;51.074;17.004;2023-06-10T07:40:59;28.00;55.00
39751;DHT22;37579;51.074;17.004;2023-06-10T07:43:25;28.00;54.70
39751;DHT22;37579;51.074;17.004;2023-06-10T07:45:51;28.00;54.40
39751;DHT22;37579;51.074;17.004;2023-06-10T07:48:17;28.10;54.30
39751;DHT22;37579;51.074;17.004;2023-06-10T07:50:43;28.10;54.40
39751;DHT22;37579;51.074;17.004;2023-06-10T07:53:09;28.10;54.40
39751;DHT22;37579;51.074;17.004;2023-06-10T07:55:35;28.10;54.40
39751;DHT22;37579;51.074;17.004;2023-06-10T07:58:00;28.30;54.00
39751;DHT22;37579;51.074;17.004;2023-06-10T08:00:26;28.30;54.30
39751;DHT22;37579;51.074;17.004;2023-06-10T08:02:52;28.30;54.30
39751;DHT22;37579;51.074;17.004;2023-06-10T08:05:18;28.40;54.00
39751;DHT22;37579;51.074;17.004;2023-06-10T08:07:44;28.30;54.30
39751;DHT22;37579;51.074;17.004;2023-06-10T08:10:10;28.20;54.20
39751;DHT22;37579;51.074;17.004;2023-06-10T08:12:36;28.20;54.50
39751;DHT22;37579;51.074;17.004;2023-06-10T08:15:03;28.20;54.60
39751;DHT22;37579;51.074;17.004;2023-06-10T08:17:30;28.20;54.90
39751;DHT22;37579;51.074;17.004;2023-06-10T08:19:56;28.20;54.90
39751;DHT22;37579;51.074;17.004;2023-06-10T08:22:22;28.20;54.70
39751;DHT22;37579;51.074;17.004;2023-06-10T08:24:48;28.20;54.70
39751;DHT22;37579;51.074;17.004;2023-06-10T08:27:13;28.20;54.60
39751;DHT22;37579;51.074;17.004;2023-06-10T08:29:40;28.30;54.50
39751;DHT22;37579;51.074;17.004;2023-06-10T08:32:06;28.20;54.80
39751;DHT22;37579;51.074;17.004;2023-06-10T08:34:35;28.20;54.60
39751;DHT22;37579;51.074;17.004;2023-06-10T08:37:02;28.30;54.70
39751;DHT22;37579;51.074;17.004;2023-06-10T08:39:28;28.30;54.80
39751;DHT22;37579;51.074;17.004;2023-06-10T08:42:18;28.30;54.70
39751;DHT22;37579;51.074;17.004;2023-06-10T08:44:50;28.30;54.60
39751;DHT22;37579;51.074;17.004;2023-06-10T08:47:20;28.30;54.70
39751;DHT22;37579;51.074;17.004;2023-06-10T08:49:49;28.10;54.90
39751;DHT22;37579;51.074;17.004;2023-06-10T08:52:19;27.80;55.00
39751;DHT22;37579;51.074;17.004;2023-06-10T08:55:04;27.90;55.70
39751;DHT22;37579;51.074;17.004;2023-06-10T08:57:36;28.10;55.50
39751;DHT22;37579;51.074;17.004;2023-06-10T09:00:05;28.10;55.10
39751;DHT22;37579;51.074;17.004;2023-06-10T09:02:31;28.20;55.00
39751;DHT22;37579;51.074;17.004;2023-06-10T09:05:01;28.20;54.90
39751;DHT22;37579;51.074;17.004;2023-06-10T09:07:29;28.20;54.90
39751;DHT22;37579;51.074;17.004;2023-06-10T09:09:57;28.10;55.20
39751;DHT22;37579;51.074;17.004;2023-06-10T09:12:24;28.20;54.90
39751;DHT22;37579;51.074;17.004;2023-06-10T09:14:50;28.10;53.80
39751;DHT22;37579;51.074;17.004;2023-06-10T09:17:17;27.90;53.30
39751;DHT22;37579;51.074;17.004;2023-06-10T09:19:44;27.90;54.00
39751;DHT22;37579;51.074;17.004;2023-06-10T09:22:10;27.90;54.60
39751;DHT22;37579;51.074;17.004;2023-06-10T09:24:36;27.80;54.60
39751;DHT22;37579;51.074;17.004;2023-06-10T09:27:06;27.90;54.90
39751;DHT22;37579;51.074;17.004;2023-06-10T09:29:52;28.10;54.70
39751;DHT22;37579;51.074;17.004;2023-06-10T09:32:19;28.10;54.80
39751;DHT22;37579;51.074;17.004;2023-06-10T09:34:46;28.10;54.80
39751;DHT22;37579;51.074;17.004;2023-06-10T09:37:12;28.10;54.50
39751;DHT22;37579;51.074;17.004;2023-06-10T09:39:42;28.10;54.70
39751;DHT22;37579;51.074;17.004;2023-06-10T09:42:17;28.20;54.80
39751;DHT22;37579;51.074;17.004;2023-06-10T09:44:50;28.30;54.30
39751;DHT22;37579;51.074;17.004;2023-06-10T09:47:22;28.30;54.10
39751;DHT22;37579;51.074;17.004;2023-06-10T09:49:51;28.40;53.40
39751;DHT22;37579;51.074;17.004;2023-06-10T09:52:26;28.40;53.30
39751;DHT22;37579;51.074;17.004;2023-06-10T09:54:52;28.30;52.30
39751;DHT22;37579;51.074;17.004;2023-06-10T09:57:19;28.40;52.50
39751;DHT22;37579;51.074;17.004;2023-06-10T09:59:45;28.40;52.80
39751;DHT22;37579;51.074;17.004;2023-06-10T10:02:15;28.40;52.60
39751;DHT22;37579;51.074;17.004;2023-06-10T10:04:42;28.40;53.00
39751;DHT22;37579;51.074;17.004;2023-06-10T10:07:09;28.40;52.80
39751;DHT22;37579;51.074;17.004;2023-06-10T10:09:39;28.50;52.40
39751;DHT22;37579;51.074;17.004;2023-06-10T10:12:13;28.40;51.20
39751;DHT22;37579;51.074;17.004;2023-06-10T10:14:45;28.40;52.00
39751;DHT22;37579;51.074;17.004;2023-06-10T10:17:12;28.40;52.00
39751;DHT22;37579;51.074;17.004;2023-06-10T10:19:50;28.60;52.20
39751;DHT22;37579;51.074;17.004;2023-06-10T10:22:26;28.60;52.30
39751;DHT22;37579;51.074;17.004;2023-06-10T10:25:02;28.50;52.20
39751;DHT22;37579;51.074;17.004;2023-06-10T10:27:44;28.60;52.30
39751;DHT22;37579;51.074;17.004;2023-06-10T10:30:14;28.50;52.50
39751;DHT22;37579;51.074;17.004;2023-06-10T10:35:20;28.50;52.60
39751;DHT22;37579;51.074;17.004;2023-06-10T10:37:49;28.40;52.90
